Time;durP1;ratioP1;P1;durP2;ratioP2;P2;SDS_P1;SDS_P2;PMS_P1;PMS_P2;Temp;Humidity;BMP_temperature;BMP_pressure;BME280_temperature;BME280_humidity;BME280_pressure;Samples;Min_cycle;Max_cycle;Signal;HPM_P1;HPM_P2
2023/03/01 00:01:11;;;;;;;16.83;9.65;;;22.30;77.00;;;21.49;37.74;99955.34;5090459;28;20068;-69
2023/03/01 00:03:37;;;;;;;13.60;9.57;;;22.20;76.30;;;21.46;37.81;99954.03;5112829;27;20059;-69
2023/03/01 00:06:04;;;;;;;15.52;9.60;;;22.20;76.10;;;21.44;37.76;99945.25;5102603;27;20040;-69
2023/03/01 00:08:30;;;;;;;14.38;9.55;;;22.20;75.80;;;21.46;37.69;99948.50;5111055;27;20090;-69
2023/03/01 00:11:16;;;;;;;17.08;9.50;;;22.20;75.80;;;21.45;37.60;99948.84;5092358;27;20036;-69
2023/03/01 00:13:43;;;;;;;12.10;9.23;;;22.20;75.80;;;21.44;37.86;99945.25;5112093;27;20121;-69
2023/03/01 00:16:29;;;;;;;16.33;9.48;;;22.20;76.20;;;21.45;37.83;99944.13;5110648;27;20051;-69
2023/03/01 00:18:56;;;;;;;11.65;8.98;;;22.20;76.70;;;21.46;37.74;99943.00;5097420;27;20412;-69
2023/03/01 00:21:22;;;;;;;15.40;11.13;;;22.20;78.00;;;21.43;37.71;99940.88;5110403;27;20035;-69
2023/03/01 00:23:48;;;;;;;15.25;10.00;;;22.20;78.70;;;21.45;37.90;99946.09;5114674;27;20036;-69
2023/03/01 00:26:15;;;;;;;16.02;9.30;;;22.20;77.70;;;21.42;37.74;99944.78;5086844;28;20046;-69
2023/03/01 00:28:42;;;;;;;16.58;9.85;;;22.10;77.40;;;21.39;37.93;99942.63;5105815;27;20035;-69
2023/03/01 00:31:20;;;;;;;16.75;9.55;;;22.20;78.20;;;21.41;37.86;99942.31;5106984;27;20044;-69
2023/03/01 00:33:46;;;;;;;17.20;9.55;;;22.20;78.60;;;21.38;37.73;99932.75;5093683;28;20502;-69
2023/03/01 00:36:14;;;;;;;20.50;9.85;;;22.20;78.40;;;21.40;37.87;99924.97;5087133;27;20047;-69
2023/03/01 00:38:42;;;;;;;13.70;9.15;;;22.20;79.50;;;21.37;37.95;99928.34;5108217;27;20043;-69
2023/03/01 00:41:11;;;;;;;16.17;10.38;;;22.20;78.30;;;21.42;37.81;99935.66;5114713;27;20070;-69
2023/03/01 00:43:37;;;;;;;16.80;10.00;;;22.20;78.60;;;21.36;37.82;99934.97;5115184;27;20051;-69
2023/03/01 00:46:11;;;;;;;16.60;9.43;;;22.20;77.80;;;21.36;37.75;99928.63;5114518;27;20122;-68
2023/03/01 00:48:37;;;;;;;16.15;9.98;;;22.10;77.60;;;21.36;37.76;99932.19;5099670;27;20043;-68
2023/03/01 00:51:18;;;;;;;19.05;11.13;;;22.10;76.80;;;21.37;37.62;99927.50;5110556;27;20035;-68
2023/03/01 00:53:45;;;;;;;18.35;10.60;;;22.10;76.00;;;21.35;37.71;99914.03;5111462;27;20040;-68
2023/03/01 00:56:13;;;;;;;17.08;10.50;;;22.10;75.80;;;21.32;37.76;99914.69;5094500;27;20044;-68
2023/03/01 00:58:39;;;;;;;16.45;10.25;;;22.10;75.40;;;21.35;37.81;99914.03;5113425;27;20089;-68
2023/03/01 01:01:19;;;;;;;25.80;11.40;;;22.10;75.10;;;21.33;37.62;99909.97;5109342;27;20059;-69
2023/03/01 01:03:53;;;;;;;16.67;9.60;;;22.10;75.00;;;21.31;37.78;99899.22;5103759;28;20178;-69
2023/03/01 01:06:31;;;;;;;17.27;10.90;;;22.10;74.80;;;21.31;37.50;99901.19;5104354;28;20042;-68
2023/03/01 01:08:58;;;;;;;14.80;10.02;;;22.10;74.70;;;21.29;37.72;99904.25;5106599;28;20575;-68
2023/03/01 01:11:27;;;;;;;18.27;10.90;;;22.10;74.70;;;21.29;37.69;99898.72;5105695;28;20454;-69
2023/03/01 01:13:53;;;;;;;21.73;11.20;;;22.10;74.80;;;21.28;37.52;99902.63;5114792;28;20481;-69
2023/03/01 01:16:21;;;;;;;17.20;10.82;;;22.00;74.80;;;21.31;37.69;99901.19;5114938;28;20039;-69
2023/03/01 01:18:47;;;;;;;15.98;10.75;;;22.00;74.70;;;21.31;37.62;99901.19;5095187;28;20081;-68
2023/03/01 01:21:20;;;;;;;17.42;11.05;;;22.00;74.60;;;21.30;37.43;99894.03;5116026;28;20044;-68
2023/03/01 01:23:46;;;;;;;21.23;12.27;;;22.10;74.90;;;21.28;37.74;99908.16;5110989;28;20047;-68
2023/03/01 01:26:21;;;;;;;16.30;10.85;;;22.00;74.80;;;21.26;37.71;99902.13;5109847;28;20564;-69
2023/03/01 01:28:47;;;;;;;18.75;12.02;;;22.00;74.80;;;21.28;37.66;99896.31;5093724;28;20071;-69
2023/03/01 01:31:14;;;;;;;14.27;10.70;;;22.00;74.90;;;21.26;37.60;99882.81;5115958;27;20118;-69
2023/03/01 01:33:40;;;;;;;17.65;11.48;;;22.00;75.00;;;21.24;37.50;99890.59;5115438;27;20116;-69
2023/03/01 01:36:06;;;;;;;16.27;10.35;;;22.00;75.10;;;21.24;37.45;99885.91;5113778;27;20046;-69
2023/03/01 01:38:33;;;;;;;20.15;11.27;;;22.00;75.20;;;21.24;37.76;99896.94;5091638;28;20414;-69
2023/03/01 01:40:59;;;;;;;21.55;11.85;;;22.00;75.50;;;21.19;37.84;99886.06;5111830;27;20040;-68
2023/03/01 01:43:37;;;;;;;18.45;11.43;;;22.00;75.70;;;21.22;37.73;99879.09;5107135;27;20050;-69
2023/03/01 01:46:30;;;;;;;16.95;10.95;;;22.00;75.90;;;21.27;37.65;99887.22;5121047;27;20036;-69
2023/03/01 01:49:03;;;;;;;19.52;11.80;;;22.00;76.50;;;21.25;37.53;99881.19;5066546;27;20156;-69
2023/03/01 01:51:39;;;;;;;19.98;12.18;;;22.00;76.00;;;21.20;37.68;99871.13;5119123;27;20119;-69
2023/03/01 01:54:36;;;;;;;16.83;10.63;;;22.00;76.40;;;21.19;37.76;99879.69;5097264;27;20473;-69
2023/03/01 01:57:07;;;;;;;18.67;11.80;;;22.00;77.00;;;21.19;37.52;99890.72;5114355;27;20066;-69
2023/03/01 01:59:33;;;;;;;15.50;11.20;;;22.00;78.70;;;21.19;37.52;99876.94;5082120;27;20573;-69
2023/03/01 02:02:00;;;;;;;18.95;12.60;;;22.00;81.60;;;21.15;37.73;99871.25;5114387;27;20036;-69
2023/03/01 02:04:26;;;;;;;19.67;11.77;;;21.90;74.50;;;21.14;37.65;99864.13;5076255;28;20040;-69
2023/03/01 02:07:13;;;;;;;21.48;12.45;;;22.00;74.10;;;21.16;37.45;99866.53;5111041;27;20125;-69
2023/03/01 02:09:38;;;;;;;21.98;13.65;;;21.90;76.70;;;21.12;37.59;99863.63;5100502;27;20130;-69
2023/03/01 02:12:05;;;;;;;21.70;12.43;;;21.90;80.20;;;21.15;37.60;99860.22;5095329;28;20075;-69
2023/03/01 02:14:31;;;;;;;20.50;11.98;;;21.90;80.10;;;21.11;37.58;99863.94;5101895;27;20047;-69
2023/03/01 02:16:57;;;;;;;17.20;12.48;;;22.00;76.70;;;21.14;37.63;99863.28;5111794;27;20046;-69
2023/03/01 02:19:42;;;;;;;20.40;11.70;;;21.90;76.50;;;21.11;37.40;99867.50;5118174;27;20070;-69
2023/03/01 02:22:20;;;;;;;21.67;14.00;;;21.90;77.00;;;21.11;37.62;99873.00;5119730;27;20058;-69
2023/03/01 02:24:53;;;;;;;21.60;12.65;;;;;;;21.09;37.53;99869.78;5108306;27;20050;-69
2023/03/01 02:27:21;;;;;;;17.98;12.43;;;;;;;21.08;37.44;99879.16;5119063;27;20047;-69
2023/03/01 02:29:47;;;;;;;20.75;13.70;;;21.90;69.60;;;21.09;37.27;99882.72;5110144;27;20059;-69
2023/03/01 02:32:15;;;;;;;18.02;12.15;;;21.90;70.60;;;21.08;37.41;99881.94;5114600;27;20039;-69
2023/03/01 02:34:41;;;;;;;21.13;12.88;;;21.90;71.20;;;21.08;37.31;99881.13;5074246;27;20459;-69
2023/03/01 02:37:14;;;;;;;19.85;13.07;;;21.90;70.70;;;21.10;36.97;99887.13;5113471;27;20058;-69
2023/03/01 02:39:46;;;;;;;22.98;14.48;;;21.90;70.20;;;21.09;37.22;99891.00;5092294;27;20131;-69
2023/03/01 02:42:21;;;;;;;22.25;13.00;;;21.80;69.60;;;21.07;37.51;99885.03;5096968;27;20043;-69
2023/03/01 02:44:48;;;;;;;23.30;13.75;;;21.80;69.80;;;21.06;37.35;99886.13;5117077;27;20114;-69
2023/03/01 02:47:14;;;;;;;22.23;13.35;;;21.80;70.00;;;21.05;37.36;99892.78;5081662;27;20047;-69
2023/03/01 02:49:40;;;;;;;21.75;12.43;;;21.80;69.90;;;21.01;37.39;99890.69;5108430;27;20086;-69
2023/03/01 02:52:37;;;;;;;23.13;14.20;;;21.80;70.10;;;21.02;37.38;99888.72;5123778;27;20482;-69
2023/03/01 02:55:11;;;;;;;22.13;13.88;;;21.90;69.80;;;21.01;37.32;99874.13;5115521;27;20152;-69
2023/03/01 02:57:39;;;;;;;24.23;15.55;;;21.80;70.10;;;21.03;37.39;99882.06;5112961;27;20047;-69
2023/03/01 03:00:20;;;;;;;24.10;14.63;;;21.80;70.20;;;21.01;37.12;99882.41;5092119;27;20383;-69
2023/03/01 03:02:49;;;;;;;25.35;15.02;;;21.80;70.10;;;21.01;37.28;99874.13;5098204;27;20649;-69
2023/03/01 03:05:20;;;;;;;21.77;14.88;;;21.80;70.80;;;21.02;37.14;99880.44;5112052;27;20097;-69
2023/03/01 03:07:48;;;;;;;21.90;13.82;;;21.80;70.90;;;21.01;37.41;99885.16;5112727;27;20051;-70
2023/03/01 03:10:19;;;;;;;21.50;13.38;;;21.80;71.50;;;21.01;37.18;99876.88;5110828;27;20054;-69
2023/03/01 03:13:02;;;;;;;25.05;15.88;;;21.70;71.80;;;21.00;37.18;99869.72;5107913;27;20043;-69
2023/03/01 03:15:29;;;;;;;27.10;15.98;;;22.20;72.40;;;21.02;37.32;99861.13;5103473;27;20032;-69
2023/03/01 03:17:56;;;;;;;27.15;14.27;;;21.70;73.30;;;20.99;37.26;99856.25;5107797;27;20040;-69
2023/03/01 03:20:24;;;;;;;24.55;15.48;;;21.80;76.90;;;20.97;37.27;99851.06;5108679;27;20115;-69
2023/03/01 03:22:52;;;;;;;19.70;13.65;;;21.80;78.60;;;20.98;37.34;99849.09;5084859;27;20492;-69
2023/03/01 03:25:19;;;;;;;19.17;12.23;;;21.70;72.80;;;21.01;37.21;99857.56;5114159;27;20051;-69
2023/03/01 03:27:46;;;;;;;23.27;13.15;;;21.80;73.60;;;20.98;36.92;99862.91;5097478;27;20035;-69
2023/03/01 03:30:17;;;;;;;24.15;12.10;;;21.80;75.10;;;20.98;37.16;99858.19;5115714;27;20641;-69
2023/03/01 03:33:03;;;;;;;22.13;13.27;;;21.70;77.00;;;20.95;37.03;99852.50;5097664;27;20088;-69
2023/03/01 03:35:31;;;;;;;24.98;15.45;;;21.70;72.10;;;21.00;37.34;99855.94;5109334;27;20501;-69
2023/03/01 03:38:03;;;;;;;22.08;13.40;;;21.70;72.40;;;20.96;37.17;99852.19;5113737;27;20043;-69
2023/03/01 03:40:40;;;;;;;27.55;13.40;;;21.70;74.10;;;20.94;37.01;99861.88;5087741;27;20075;-69
2023/03/01 03:43:12;;;;;;;25.80;15.25;;;21.70;75.90;;;20.92;37.32;99855.91;5113458;27;20068;-69
2023/03/01 03:45:38;;;;;;;;;;;;;;;20.91;37.16;99860.56;5093538;27;20086;-69
2023/03/01 03:48:07;;;;;;;23.33;14.02;;;21.60;70.80;;;20.90;37.20;99861.72;5112992;27;20343;-69
2023/03/01 03:50:33;;;;;;;25.60;15.23;;;21.60;71.90;;;20.86;37.06;99857.97;5105570;27;20036;-69
2023/03/01 03:53:05;;;;;;;23.38;15.20;;;21.60;70.60;;;20.86;37.17;99863.47;5107885;27;20040;-69
2023/03/01 03:55:33;;;;;;;23.50;13.32;;;21.60;70.60;;;20.85;37.13;99867.38;5117025;27;20493;-69
2023/03/01 03:58:06;;;;;;;20.30;13.48;;;21.60;70.60;;;20.87;37.00;99864.31;5083400;27;20051;-69
2023/03/01 04:00:41;;;;;;;22.05;15.45;;;21.60;70.60;;;20.88;37.30;99877.75;5111776;27;20040;-69
2023/03/01 04:03:08;;;;;;;19.52;13.07;;;21.60;70.80;;;20.88;37.11;99875.00;5111252;27;20088;-69
2023/03/01 04:05:34;;;;;;;24.90;15.35;;;21.60;71.10;;;20.88;37.18;99863.16;5116560;27;20039;-69
2023/03/01 04:08:06;;;;;;;23.67;14.15;;;21.60;71.40;;;20.87;37.00;99854.09;5089539;27;20120;-69
2023/03/01 04:10:36;;;;;;;;;;;21.60;72.70;;;20.82;37.17;99856.97;5109359;27;20044;-69
2023/03/01 04:13:03;;;;;;;23.70;13.60;;;;;;;20.82;37.25;99854.22;5114349;27;19931;-69
2023/03/01 04:15:29;;;;;;;21.67;13.43;;;21.60;72.00;;;20.84;37.19;99859.41;5111953;27;20737;-69
2023/03/01 04:17:56;;;;;;;33.60;15.48;;;21.60;72.40;;;20.83;37.01;99861.34;5107425;27;20050;-69
2023/03/01 04:20:25;;;;;;;24.35;14.13;;;21.60;73.10;;;20.80;37.10;99867.50;5106940;27;20047;-69
2023/03/01 04:23:15;;;;;;;23.33;14.70;;;21.60;72.30;;;20.79;37.45;99871.41;5106022;27;20477;-69
2023/03/01 04:25:54;;;;;;;28.48;16.95;;;21.60;72.80;;;20.78;37.44;99873.31;5093836;27;20050;-69
2023/03/01 04:28:30;;;;;;;31.88;16.58;;;21.60;71.90;;;20.81;37.23;99864.44;5110696;27;20121;-69
2023/03/01 04:30:57;;;;;;;24.73;15.02;;;21.60;71.90;;;20.80;37.16;99868.31;5112051;27;20043;-70
2023/03/01 04:33:24;;;;;;;24.10;14.73;;;21.60;72.30;;;20.81;37.16;99866.38;5076947;28;20031;-70
2023/03/01 04:35:50;;;;;;;21.90;15.02;;;21.60;72.40;;;20.83;37.16;99868.81;5113129;27;20123;-70
2023/03/01 04:38:17;;;;;;;22.80;14.30;;;21.60;72.80;;;20.82;37.04;99873.53;5090113;27;20047;-70
2023/03/01 04:40:43;;;;;;;21.33;14.20;;;21.70;74.00;;;20.84;36.95;99862.16;5093796;27;20312;-70
2023/03/01 04:43:10;;;;;;;22.27;13.95;;;21.60;74.10;;;20.80;37.16;99860.03;5104368;27;20036;-70
2023/03/01 04:45:36;;;;;;;27.75;15.95;;;22.20;82.50;;;20.78;36.98;99858.72;5080545;28;20073;-70
2023/03/01 04:48:03;;;;;;;20.80;14.15;;;21.60;75.10;;;20.77;37.32;99862.63;5097538;27;20040;-70
2023/03/01 04:50:29;;;;;;;23.75;14.95;;;21.60;74.40;;;20.78;36.96;99854.03;5108473;27;20040;-70
2023/03/01 04:52:58;;;;;;;22.50;14.20;;;21.60;74.50;;;20.81;37.10;99847.06;5083318;28;20049;-70
2023/03/01 04:55:27;;;;;;;24.48;14.18;;;21.60;74.60;;;20.79;37.15;99849.34;5103917;27;20359;-69
2023/03/01 04:57:54;;;;;;;24.77;14.27;;;21.60;75.30;;;20.76;36.93;99845.28;5102313;27;20047;-69
2023/03/01 05:00:20;;;;;;;20.00;13.80;;;21.60;76.80;;;20.77;37.16;99848.84;5120350;27;20462;-69
2023/03/01 05:02:59;;;;;;;24.02;15.27;;;21.50;74.50;;;20.77;37.02;99840.56;5112231;27;20044;-69
2023/03/01 05:05:34;;;;;;;23.45;14.80;;;21.60;74.60;;;20.78;36.91;99840.25;5115964;27;20490;-69
2023/03/01 05:08:06;;;;;;;23.80;13.77;;;21.60;74.70;;;20.80;37.03;99839.94;5096887;28;20460;-69
2023/03/01 05:10:34;;;;;;;29.25;15.63;;;21.60;75.00;;;20.80;36.90;99837.97;5113550;28;20039;-69
2023/03/01 05:13:01;;;;;;;26.10;14.40;;;21.50;75.20;;;20.84;36.68;99853.88;5071372;28;20093;-69
2023/03/01 05:15:28;;;;;;;28.15;14.30;;;21.60;76.10;;;20.87;36.86;99847.75;5089435;28;20535;-69
2023/03/01 05:17:58;;;;;;;21.15;13.82;;;21.60;78.90;;;20.88;36.78;99828.13;5112253;28;20509;-69
2023/03/01 05:20:28;;;;;;;24.25;14.27;;;21.60;77.80;;;20.90;36.39;99825.88;5106582;28;20109;-69
2023/03/01 05:22:59;;;;;;;21.13;13.32;;;21.70;78.20;;;20.96;36.55;99826.53;5110504;28;20043;-69
2023/03/01 05:25:25;;;;;;;26.58;15.40;;;;;;;21.00;36.54;99830.31;5106465;28;20043;-69
2023/03/01 05:27:51;;;;;;;23.65;14.13;;;21.70;91.00;;;21.05;36.31;99829.34;5089921;28;20050;-69
2023/03/01 05:30:18;;;;;;;21.65;13.35;;;21.70;78.50;;;21.01;36.40;99832.75;5106531;28;20490;-69
2023/03/01 05:32:46;;;;;;;20.55;14.18;;;21.80;80.80;;;21.06;36.32;99829.00;5101208;28;20505;-69
2023/03/01 05:35:13;;;;;;;25.00;14.98;;;21.80;85.50;;;21.09;36.30;99841.34;5093293;28;20036;-69
2023/03/01 05:37:45;;;;;;;22.88;14.43;;;21.80;77.60;;;21.07;36.24;99847.22;5107680;28;20254;-69
2023/03/01 05:40:17;;;;;;;22.48;14.05;;;21.80;77.40;;;21.04;36.29;99850.59;5107343;28;20055;-69
2023/03/01 05:42:44;;;;;;;;;;;21.80;74.40;;;21.04;36.18;99858.88;5110463;28;20398;-69
2023/03/01 05:45:10;;;;;;;21.15;12.85;;;21.80;74.10;;;21.08;36.30;99859.06;5111938;28;19920;-69
2023/03/01 05:47:36;;;;;;;25.52;14.75;;;21.80;74.40;;;21.09;36.03;99855.16;5105139;28;20032;-69
2023/03/01 05:50:02;;;;;;;24.27;14.65;;;21.80;74.20;;;21.15;36.15;99864.94;5112445;28;20110;-69
2023/03/01 05:52:29;;;;;;;22.25;14.00;;;21.90;74.90;;;21.16;36.20;99861.03;5111463;28;20278;-69
2023/03/01 05:54:55;;;;;;;25.02;15.82;;;21.90;76.80;;;21.22;36.00;99851.50;5100638;28;20088;-69
2023/03/01 05:57:21;;;;;;;29.60;15.52;;;22.00;73.70;;;21.20;36.08;99845.47;5109947;28;20043;-69
2023/03/01 05:59:47;;;;;;;24.00;14.45;;;22.00;73.10;;;21.24;35.86;99844.53;5108160;28;20062;-69
2023/03/01 06:02:13;;;;;;;24.35;14.00;;;22.00;73.30;;;21.32;35.75;99845.69;5108237;28;20097;-69
2023/03/01 06:04:39;;;;;;;20.42;13.55;;;22.10;73.30;;;21.38;35.54;99844.41;5110557;28;20043;-69
2023/03/01 06:07:05;;;;;;;22.40;13.02;;;22.10;73.10;;;21.38;35.92;99855.47;5111074;28;20048;-69
2023/03/01 06:09:31;;;;;;;20.98;13.95;;;22.10;73.40;;;21.41;35.83;99852.06;5116254;28;20043;-69
2023/03/01 06:11:57;;;;;;;21.88;14.77;;;22.20;73.60;;;21.42;35.75;99856.47;5114005;28;20484;-69
2023/03/01 06:14:23;;;;;;;23.02;14.10;;;22.20;73.80;;;21.50;35.66;99854.84;5106156;27;20051;-69
2023/03/01 06:16:49;;;;;;;23.35;14.88;;;22.20;74.30;;;21.53;35.59;99845.13;5114496;27;20044;-69
2023/03/01 06:19:15;;;;;;;22.20;13.07;;;22.30;75.90;;;21.59;35.74;99857.63;5112066;27;20541;-69
2023/03/01 06:21:41;;;;;;;20.65;12.82;;;22.40;75.90;;;21.62;35.62;99852.25;5112844;27;20039;-70
2023/03/01 06:24:08;;;;;;;24.83;12.93;;;22.40;75.10;;;21.68;35.68;99859.28;5107659;27;20079;-70
2023/03/01 06:26:34;;;;;;;22.38;13.18;;;22.50;74.70;;;21.72;35.36;99853.91;5110505;27;20043;-70
2023/03/01 06:29:00;;;;;;;22.50;14.55;;;22.50;75.00;;;21.75;35.44;99866.25;5105776;27;20046;-70
2023/03/01 06:31:26;;;;;;;22.83;13.77;;;22.50;75.00;;;21.78;35.43;99858.16;5105128;27;20115;-70
2023/03/01 06:33:52;;;;;;;22.80;14.10;;;22.50;76.50;;;21.80;35.35;99855.88;5105940;27;20036;-70
2023/03/01 06:36:20;;;;;;;23.00;15.00;;;;;;;21.84;35.04;99853.28;5111231;27;20040;-70
2023/03/01 06:38:46;;;;;;;23.27;14.55;;;22.60;89.90;;;21.86;35.21;99857.34;5115751;27;20048;-70
2023/03/01 06:41:13;;;;;;;20.30;14.23;;;23.40;93.60;;;21.93;35.16;99854.13;5092892;27;20463;-70
2023/03/01 06:43:39;;;;;;;23.30;13.80;;;22.70;80.80;;;21.95;35.10;99857.34;5118457;27;20039;-70
2023/03/01 06:46:06;;;;;;;21.58;14.85;;;22.70;80.30;;;21.96;34.71;99861.75;5110146;27;20054;-70
2023/03/01 06:48:33;;;;;;;22.30;13.07;;;22.70;79.50;;;22.02;34.89;99849.41;5094365;28;20040;-71
2023/03/01 06:51:02;;;;;;;22.27;14.40;;;22.70;77.90;;;21.97;35.16;99855.06;5114082;27;20062;-71
2023/03/01 06:53:29;;;;;;;21.25;14.30;;;22.70;73.10;;;22.00;34.92;99856.38;5101061;27;20140;-70
2023/03/01 06:55:56;;;;;;;25.27;14.48;;;22.70;73.10;;;22.01;35.03;99855.25;5076144;28;20040;-70
2023/03/01 06:58:22;;;;;;;22.63;13.82;;;22.70;69.80;;;22.07;34.86;99853.94;5116094;27;20043;-70
2023/03/01 07:00:49;;;;;;;20.60;13.43;;;22.70;69.60;;;22.06;34.74;99853.16;5112397;27;20053;-71
2023/03/01 07:03:15;;;;;;;21.25;13.43;;;22.70;70.20;;;22.05;34.97;99845.97;5114464;27;20047;-70
2023/03/01 07:05:41;;;;;;;23.27;14.13;;;22.80;70.60;;;22.06;34.92;99844.06;5108932;27;20058;-70
2023/03/01 07:08:07;;;;;;;20.55;13.65;;;22.80;75.60;;;22.07;34.87;99848.44;5111402;27;20084;-70
2023/03/01 07:10:33;;;;;;;22.15;14.73;;;22.80;71.30;;;22.07;34.84;99845.66;5120438;27;20039;-71
2023/03/01 07:12:59;;;;;;;24.55;14.25;;;22.80;70.00;;;22.10;34.48;99834.75;5101366;27;20098;-70
2023/03/01 07:15:26;;;;;;;20.88;13.15;;;22.80;69.80;;;22.08;35.02;99834.28;5116128;27;20052;-70
2023/03/01 07:17:52;;;;;;;25.73;14.43;;;22.80;70.00;;;22.10;34.88;99834.75;5115009;27;20444;-70
2023/03/01 07:20:19;;;;;;;20.58;12.80;;;22.80;69.70;;;22.14;34.65;99829.41;5116757;27;20047;-70
2023/03/01 07:22:44;;;;;;;24.35;15.02;;;22.80;69.70;;;22.15;34.89;99827.47;5114141;27;20046;-70
2023/03/01 07:25:11;;;;;;;24.13;15.73;;;22.90;69.80;;;22.15;34.72;99821.94;5110804;27;20043;-70
2023/03/01 07:27:37;;;;;;;20.70;14.65;;;22.90;69.90;;;22.13;34.63;99810.38;5114804;27;20397;-70
2023/03/01 07:30:06;;;;;;;21.55;13.90;;;22.90;69.90;;;22.15;34.74;99805.34;5109302;27;20035;-70
2023/03/01 07:32:31;;;;;;;22.40;15.20;;;22.90;70.10;;;22.21;34.72;99806.81;5110357;27;20046;-70
2023/03/01 07:34:58;;;;;;;23.05;14.52;;;22.90;70.20;;;22.23;34.98;99805.34;5111258;27;20505;-70
2023/03/01 07:37:24;;;;;;;23.80;14.10;;;22.90;70.40;;;22.25;34.95;99805.84;5107819;27;20039;-70
2023/03/01 07:39:50;;;;;;;21.77;12.88;;;22.90;70.50;;;22.27;34.96;99806.34;5098399;27;20050;-70
2023/03/01 07:42:16;;;;;;;28.42;15.82;;;23.00;71.00;;;22.25;34.66;99800.31;5100440;27;20051;-70
2023/03/01 07:44:42;;;;;;;27.90;15.65;;;23.00;70.90;;;22.28;34.71;99807.16;5116317;27;20039;-69
2023/03/01 07:47:08;;;;;;;24.00;14.43;;;23.00;71.10;;;22.27;34.87;99811.06;5076012;27;20436;-69
2023/03/01 07:49:34;;;;;;;22.52;13.85;;;23.00;70.90;;;22.32;34.67;99814.47;5108257;27;20471;-69
2023/03/01 07:52:00;;;;;;;37.28;14.25;;;23.00;71.00;;;22.33;34.70;99809.75;5107151;27;20044;-69
2023/03/01 07:54:26;;;;;;;21.70;13.27;;;23.00;71.00;;;22.36;34.69;99822.91;5112635;27;20038;-69
2023/03/01 07:56:54;;;;;;;22.83;13.85;;;23.10;70.90;;;22.39;34.60;99827.81;5105251;27;20044;-69
2023/03/01 07:59:20;;;;;;;23.08;13.45;;;23.10;71.10;;;22.42;34.58;99832.66;5108096;27;20060;-69
2023/03/01 08:01:47;;;;;;;21.73;14.02;;;23.20;71.10;;;22.42;34.64;99818.03;5108703;27;20040;-70
2023/03/01 08:04:13;;;;;;;23.58;13.35;;;23.20;71.10;;;22.42;34.63;99829.09;5105342;27;20040;-71
2023/03/01 08:06:39;;;;;;;17.52;12.88;;;23.30;71.40;;;22.40;34.76;99823.88;5104242;27;20059;-70
2023/03/01 08:09:05;;;;;;;22.60;14.23;;;23.20;71.50;;;22.43;34.60;99814.94;5101486;27;20758;-70
2023/03/01 08:11:31;;;;;;;20.88;14.30;;;23.20;71.60;;;22.49;34.60;99812.78;5111091;27;20039;-70
2023/03/01 08:13:58;;;;;;;25.05;13.10;;;23.30;71.80;;;22.54;34.55;99819.00;5111205;27;20118;-70
2023/03/01 08:16:23;;;;;;;22.38;14.55;;;23.30;71.90;;;22.56;34.60;99813.09;5117826;27;20541;-70
2023/03/01 08:18:50;;;;;;;23.38;13.68;;;23.30;72.10;;;22.58;34.49;99813.59;5113294;27;20104;-69
2023/03/01 08:21:17;;;;;;;19.67;13.13;;;23.30;72.40;;;22.58;34.56;99805.31;5109068;27;20383;-69
2023/03/01 08:23:43;;;;;;;22.40;14.75;;;23.30;73.00;;;22.63;34.54;99807.88;5100507;27;20048;-69
2023/03/01 08:26:20;;;;;;;24.17;14.05;;;23.40;73.30;;;22.67;34.48;99802.50;5097938;27;20802;-71
2023/03/01 08:28:46;;;;;;;21.80;13.48;;;23.40;73.40;;;22.68;34.57;99802.19;5098054;27;20039;-70
2023/03/01 08:31:22;;;;;;;23.83;13.20;;;23.40;73.60;;;22.70;34.42;99802.66;5112338;27;20444;-70
2023/03/01 08:33:51;;;;;;;23.08;13.35;;;23.40;73.60;;;22.68;34.52;99802.19;5103593;27;20040;-70
2023/03/01 08:36:17;;;;;;;26.67;15.38;;;23.40;74.30;;;22.75;34.44;99793.38;5110278;27;20044;-69
2023/03/01 08:38:44;;;;;;;22.15;13.23;;;23.40;74.90;;;22.73;34.41;99792.91;5103016;27;20066;-70
2023/03/01 08:41:10;;;;;;;22.00;14.52;;;23.50;81.30;;;22.80;34.41;99789.63;5105693;27;20055;-70
2023/03/01 08:43:36;;;;;;;23.65;14.23;;;23.40;73.60;;;22.82;34.73;99790.09;5096795;27;20040;-70
2023/03/01 08:46:03;;;;;;;18.20;12.27;;;23.50;73.60;;;22.82;34.34;99784.56;5114012;27;20035;-70
2023/03/01 08:48:29;;;;;;;23.27;14.02;;;23.50;74.30;;;22.79;34.47;99782.47;5108532;27;20451;-70
2023/03/01 08:50:55;;;;;;;22.80;14.43;;;23.50;78.00;;;22.82;34.50;99771.56;5109572;27;20082;-69
2023/03/01 08:53:21;;;;;;;17.98;13.10;;;23.50;74.60;;;22.83;34.46;99775.13;5109610;27;20044;-70
2023/03/01 08:55:47;;;;;;;21.90;13.27;;;23.50;74.10;;;22.88;34.52;99764.69;5114985;27;20437;-70
2023/03/01 08:58:13;;;;;;;21.98;13.98;;;23.60;74.10;;;22.91;34.43;99768.75;5096167;27;20040;-70
2023/03/01 09:00:40;;;;;;;18.27;12.48;;;23.60;73.80;;;22.90;34.43;99778.19;5106827;27;20054;-70
2023/03/01 09:03:06;;;;;;;22.48;13.25;;;23.60;73.70;;;22.90;34.50;99776.25;5106433;27;20046;-70
2023/03/01 09:05:33;;;;;;;19.35;12.35;;;23.70;74.00;;;22.93;34.39;99778.34;5110447;27;20039;-70
2023/03/01 09:08:00;;;;;;;21.65;12.70;;;23.70;74.80;;;22.96;34.32;99785.16;5087842;28;20058;-70
2023/03/01 09:10:26;;;;;;;21.25;12.68;;;23.70;78.50;;;23.00;34.57;99782.56;5089941;28;20040;-70
2023/03/01 09:12:52;;;;;;;22.00;13.82;;;23.70;75.90;;;22.99;34.46;99776.22;5110777;28;20040;-70
2023/03/01 09:15:18;;;;;;;21.60;12.80;;;23.70;73.00;;;23.02;34.33;99778.31;5093505;28;20123;-70
2023/03/01 09:17:46;;;;;;;18.75;12.32;;;23.70;79.40;;;23.03;34.42;99781.91;5108399;28;20058;-70
2023/03/01 09:20:12;;;;;;;19.35;12.55;;;23.70;74.40;;;23.03;34.41;99776.38;5108651;28;20094;-70
2023/03/01 09:22:38;;;;;;;19.00;12.20;;;23.70;75.60;;;23.06;34.34;99770.19;5114679;28;20520;-70
2023/03/01 09:25:06;;;;;;;19.83;12.68;;;23.80;76.20;;;23.09;34.24;99778.59;5105238;28;20040;-70
2023/03/01 09:27:32;;;;;;;21.95;13.50;;;23.80;73.40;;;23.07;34.38;99767.06;5113435;28;20050;-70
2023/03/01 09:29:58;;;;;;;17.42;12.25;;;23.80;73.70;;;23.12;34.28;99771.59;5108381;28;20363;-70
2023/03/01 09:32:24;;;;;;;18.40;13.35;;;23.90;73.80;;;23.18;34.25;99778.56;5111336;28;20486;-70
2023/03/01 09:35:00;;;;;;;19.48;13.25;;;23.90;74.00;;;23.27;34.22;99775.75;5102159;28;20063;-70
2023/03/01 09:37:27;;;;;;;17.90;11.80;;;23.90;74.10;;;23.27;34.23;99776.56;5109217;28;20390;-70
2023/03/01 09:39:53;;;;;;;21.05;12.50;;;24.00;74.30;;;23.29;33.91;99767.94;5109311;28;20035;-70
2023/03/01 09:42:19;;;;;;;22.48;13.05;;;24.00;74.80;;;23.30;33.89;99770.34;5104872;28;20483;-70
2023/03/01 09:45:06;;;;;;;17.45;12.23;;;24.00;76.00;;;23.26;33.81;99766.63;5085946;28;20089;-70
2023/03/01 09:47:34;;;;;;;17.63;11.68;;;24.10;77.00;;;23.35;33.81;99767.38;5110198;28;20044;-70
2023/03/01 09:50:11;;;;;;;21.73;13.93;;;24.10;73.60;;;23.35;33.94;99772.09;5092196;27;20044;-70
2023/03/01 09:52:59;;;;;;;18.63;11.93;;;24.20;77.70;;;23.43;33.77;99762.94;5103749;27;20065;-69
2023/03/01 09:55:55;;;;;;;20.75;12.90;;;24.20;78.40;;;23.46;33.82;99758.69;5100378;27;20047;-70
2023/03/01 09:58:57;;;;;;;17.83;11.43;;;24.20;76.90;;;23.46;33.61;99759.50;5088805;27;20397;-71
2023/03/01 10:01:53;;;;;;;15.70;11.77;;;24.20;73.00;;;23.52;33.88;99754.56;5099889;27;20122;-70
2023/03/01 10:04:45;;;;;;;20.42;12.02;;;24.20;72.80;;;23.59;33.72;99754.84;5115658;27;20668;-70
2023/03/01 10:08:04;;;;;;;21.20;11.85;;;24.30;74.00;;;23.64;33.79;99762.16;5114689;27;20055;-70
2023/03/01 10:10:49;;;;;;;17.10;11.75;;;24.30;80.60;;;23.70;33.41;99763.56;5108181;27;20105;-70
2023/03/01 10:13:16;;;;;;;18.05;13.00;;;24.30;73.70;;;23.71;33.58;99762.41;5115027;27;20138;-70
2023/03/01 10:15:48;;;;;;;21.42;11.57;;;24.30;76.60;;;23.72;33.61;99752.97;5105326;27;20035;-70
2023/03/01 10:18:20;;;;;;;15.75;10.63;;;24.30;73.60;;;23.78;33.45;99762.72;5093612;28;20089;-70